createdAt,value
2018-12-20T00:01:13.005Z,6.50
2018-12-20T00:03:41.192Z,6.40
2018-12-20T00:06:09.323Z,6.50
2018-12-20T00:08:37.996Z,6.50
2018-12-20T00:11:06.157Z,6.50
2018-12-20T00:13:34.275Z,6.50
2018-12-20T00:16:02.714Z,6.50
2018-12-20T00:18:31.027Z,6.50
2018-12-20T00:20:59.143Z,6.60
2018-12-20T00:23:27.395Z,6.60
2018-12-20T00:25:55.570Z,6.60
2018-12-20T00:28:23.910Z,6.70
2018-12-20T00:30:52.595Z,6.70
2018-12-20T00:33:20.816Z,6.70
2018-12-20T00:35:49.151Z,6.70
2018-12-20T00:38:17.532Z,6.70
2018-12-20T00:40:45.851Z,6.70
2018-12-20T00:43:14.098Z,6.80
2018-12-20T00:45:42.589Z,6.80
2018-12-20T00:48:10.787Z,6.80
2018-12-20T00:50:39.021Z,6.80
2018-12-20T00:53:07.370Z,6.80
2018-12-20T00:55:35.598Z,6.80
2018-12-20T00:58:03.863Z,6.80
2018-12-20T01:00:32.398Z,6.90
2018-12-20T01:03:00.611Z,6.90
2018-12-20T01:05:28.978Z,7.00
2018-12-20T01:07:57.303Z,7.00
2018-12-20T01:10:25.491Z,7.00
2018-12-20T01:12:53.670Z,7.00
2018-12-20T01:15:21.942Z,7.00
2018-12-20T01:17:50.296Z,7.00
2018-12-20T01:20:18.659Z,7.00
2018-12-20T01:22:46.940Z,7.00
2018-12-20T01:25:15.390Z,7.00
2018-12-20T01:27:43.671Z,7.00
2018-12-20T01:30:11.999Z,7.00
2018-12-20T01:32:40.328Z,7.00
2018-12-20T01:35:08.729Z,7.00
2018-12-20T01:37:37.139Z,7.00
2018-12-20T01:40:06.034Z,7.00
2018-12-20T01:42:34.153Z,7.00
2018-12-20T01:45:02.736Z,7.00
2018-12-20T01:47:31.042Z,7.00
2018-12-20T01:49:59.246Z,7.00
2018-12-20T01:52:27.689Z,7.00
2018-12-20T01:54:56.326Z,7.00
2018-12-20T01:57:24.740Z,6.90
2018-12-20T01:59:53.032Z,6.90
2018-12-20T02:02:21.162Z,6.90
2018-12-20T02:04:49.772Z,6.90
2018-12-20T02:07:18.304Z,6.90
2018-12-20T02:09:46.503Z,6.80
2018-12-20T02:12:14.696Z,6.90
2018-12-20T02:14:43.336Z,6.90
2018-12-20T02:17:11.529Z,6.90
2018-12-20T02:19:39.723Z,6.90
2018-12-20T02:22:08.616Z,6.90
2018-12-20T02:24:37.109Z,6.90
2018-12-20T02:27:05.322Z,6.90
2018-12-20T02:29:34.051Z,6.90
2018-12-20T02:32:02.389Z,6.90
2018-12-20T02:34:30.589Z,6.90
2018-12-20T02:36:59.051Z,6.80
2018-12-20T02:39:27.366Z,6.90
2018-12-20T02:41:55.809Z,6.80
2018-12-20T02:44:24.508Z,6.90
2018-12-20T02:46:52.725Z,6.90
2018-12-20T02:49:21.213Z,6.90
2018-12-20T02:51:50.149Z,6.80
2018-12-20T02:54:18.374Z,6.90
2018-12-20T02:56:46.736Z,6.80
2018-12-20T02:59:15.512Z,6.90
2018-12-20T03:01:43.848Z,6.80
2018-12-20T03:04:12.096Z,6.80
2018-12-20T03:06:40.354Z,6.80
2018-12-20T03:09:09.167Z,6.80
2018-12-20T03:11:37.519Z,6.80
2018-12-20T03:14:06.299Z,6.80
2018-12-20T03:16:34.688Z,6.80
2018-12-20T03:19:03.082Z,6.70
2018-12-20T03:21:31.454Z,6.60
2018-12-20T03:23:59.779Z,6.60
2018-12-20T03:26:28.402Z,6.60
2018-12-20T03:28:56.697Z,6.50
2018-12-20T03:31:24.909Z,6.60
2018-12-20T03:33:53.023Z,6.60
2018-12-20T03:36:21.270Z,6.60
2018-12-20T03:38:49.450Z,6.60
2018-12-20T03:41:17.806Z,6.60
2018-12-20T03:43:46.412Z,6.60
2018-12-20T03:46:14.815Z,6.60
2018-12-20T03:48:43.098Z,6.60
2018-12-20T03:51:11.539Z,6.50
2018-12-20T03:53:39.998Z,6.50
2018-12-20T03:56:08.561Z,6.50
2018-12-20T03:58:36.947Z,6.50
2018-12-20T04:01:05.188Z,6.50
2018-12-20T04:03:33.487Z,6.50
2018-12-20T04:06:02.089Z,6.50
2018-12-20T04:08:30.468Z,6.50
2018-12-20T04:10:58.799Z,6.50
2018-12-20T04:13:27.383Z,6.50
2018-12-20T04:15:55.847Z,6.60
2018-12-20T04:18:24.037Z,6.50
2018-12-20T04:20:52.364Z,6.60
2018-12-20T04:23:20.702Z,6.60
2018-12-20T04:25:49.582Z,6.60
2018-12-20T04:28:18.185Z,6.70
2018-12-20T04:30:46.461Z,6.70
2018-12-20T04:33:14.695Z,6.70
2018-12-20T04:35:43.724Z,6.60
2018-12-20T04:38:12.139Z,6.60
2018-12-20T04:40:40.446Z,6.60
2018-12-20T04:43:09.112Z,6.60
2018-12-20T04:45:37.351Z,6.60
2018-12-20T04:48:05.781Z,6.60
2018-12-20T04:50:34.261Z,6.70
2018-12-20T04:53:02.773Z,6.70
2018-12-20T04:55:31.075Z,6.60
2018-12-20T04:57:59.777Z,6.70
2018-12-20T05:00:28.246Z,6.70
2018-12-20T05:02:56.461Z,6.70
2018-12-20T05:05:24.979Z,6.70
2018-12-20T05:07:53.320Z,6.70
2018-12-20T05:10:21.741Z,6.60
2018-12-20T05:12:50.157Z,6.60
2018-12-20T05:15:18.369Z,6.60
2018-12-20T05:17:46.623Z,6.60
2018-12-20T05:20:15.058Z,6.60
2018-12-20T05:22:43.223Z,6.60
2018-12-20T05:25:11.354Z,6.70
2018-12-20T05:27:39.639Z,6.70
2018-12-20T05:30:08.266Z,6.70
2018-12-20T05:32:36.858Z,6.70
2018-12-20T05:35:05.990Z,6.70
2018-12-20T05:37:34.195Z,6.80
2018-12-20T05:40:02.530Z,6.80
2018-12-20T05:42:31.271Z,6.90
2018-12-20T05:44:59.533Z,7.00
2018-12-20T05:47:27.888Z,7.10
2018-12-20T05:49:56.676Z,7.20
2018-12-20T05:52:25.091Z,7.30
2018-12-20T05:54:53.314Z,7.30
2018-12-20T05:57:21.897Z,7.50
2018-12-20T05:59:50.161Z,7.50
2018-12-20T06:02:18.478Z,7.50
2018-12-20T06:04:46.813Z,7.60
2018-12-20T06:07:15.003Z,7.60
2018-12-20T06:09:43.279Z,7.70
2018-12-20T06:12:11.547Z,7.60
2018-12-20T06:14:39.829Z,7.70
2018-12-20T06:17:07.995Z,7.70
2018-12-20T06:19:36.428Z,7.70
2018-12-20T06:22:04.770Z,7.70
2018-12-20T06:24:32.954Z,7.70
2018-12-20T06:27:01.347Z,7.70
2018-12-20T06:29:29.558Z,7.70
2018-12-20T06:31:57.759Z,7.70
2018-12-20T06:34:26.276Z,7.70
2018-12-20T06:36:54.495Z,7.70
2018-12-20T06:39:22.612Z,7.70
2018-12-20T06:41:50.948Z,7.80
2018-12-20T06:44:19.067Z,7.80
2018-12-20T06:46:50.874Z,7.80
2018-12-20T06:49:19.396Z,7.70
2018-12-20T06:51:47.590Z,7.70
2018-12-20T06:54:15.920Z,7.80
2018-12-20T06:56:45.439Z,7.80
2018-12-20T06:59:13.551Z,7.70
2018-12-20T07:01:41.744Z,7.80
2018-12-20T07:04:10.299Z,7.80
2018-12-20T07:06:38.755Z,7.80
2018-12-20T07:09:09.031Z,7.80
2018-12-20T07:11:37.338Z,7.80
2018-12-20T07:14:05.532Z,7.80
2018-12-20T07:16:33.631Z,7.80
2018-12-20T07:19:02.087Z,7.80
2018-12-20T07:21:30.287Z,7.80
2018-12-20T07:23:58.602Z,7.80
2018-12-20T07:26:26.954Z,7.80
2018-12-20T07:28:55.077Z,7.80
2018-12-20T07:31:23.184Z,7.90
2018-12-20T07:33:51.459Z,7.90
2018-12-20T07:36:19.643Z,7.80
2018-12-20T07:38:47.852Z,7.90
2018-12-20T07:41:16.551Z,7.90
2018-12-20T07:43:44.682Z,7.90
2018-12-20T07:46:12.789Z,7.90
2018-12-20T07:48:41.063Z,7.90
2018-12-20T07:51:09.188Z,7.90
2018-12-20T07:53:37.445Z,7.90
2018-12-20T07:56:05.943Z,8.00
2018-12-20T07:58:34.415Z,8.00
2018-12-20T08:01:02.699Z,7.90
2018-12-20T08:03:30.978Z,8.00
2018-12-20T08:05:59.081Z,8.00
2018-12-20T08:08:27.210Z,8.00
2018-12-20T08:10:55.543Z,8.00
2018-12-20T08:13:23.656Z,8.00
2018-12-20T08:15:52.063Z,8.00
2018-12-20T08:18:20.628Z,8.10
2018-12-20T08:20:48.736Z,8.00
2018-12-20T08:23:16.840Z,8.00
2018-12-20T08:25:45.190Z,8.00
2018-12-20T08:28:13.298Z,8.10
2018-12-20T08:30:41.429Z,8.00
2018-12-20T08:33:10.099Z,8.10
2018-12-20T08:35:38.196Z,8.10
2018-12-20T08:38:06.304Z,8.10
2018-12-20T08:40:34.751Z,8.10
2018-12-20T08:43:02.857Z,8.10
2018-12-20T08:45:30.997Z,8.10
2018-12-20T08:47:59.337Z,8.10
2018-12-20T08:50:27.632Z,8.10
2018-12-20T08:52:55.758Z,8.20
2018-12-20T08:55:24.290Z,8.20
2018-12-20T08:57:52.483Z,8.20
2018-12-20T09:00:20.671Z,8.20
2018-12-20T09:02:49.127Z,8.20
2018-12-20T09:05:17.233Z,8.20
2018-12-20T09:07:47.020Z,8.20
2018-12-20T09:10:15.364Z,8.20
2018-12-20T09:12:43.463Z,8.20
2018-12-20T09:15:11.667Z,8.20
2018-12-20T09:17:39.915Z,8.30
2018-12-20T09:20:08.569Z,8.30
2018-12-20T09:22:36.683Z,8.30
2018-12-20T09:25:05.163Z,8.30
2018-12-20T09:27:33.274Z,8.40
2018-12-20T09:30:01.403Z,8.30
2018-12-20T09:32:29.788Z,8.40
2018-12-20T09:34:57.883Z,8.40
2018-12-20T09:37:26.158Z,8.40
2018-12-20T09:39:54.551Z,8.40
2018-12-20T09:42:22.846Z,8.40
2018-12-20T09:44:50.967Z,8.50
2018-12-20T09:47:24.862Z,8.40
2018-12-20T09:49:52.968Z,8.40
2018-12-20T09:52:21.174Z,8.40
2018-12-20T09:54:49.683Z,8.50
2018-12-20T09:57:17.889Z,8.50
2018-12-20T09:59:46.203Z,8.40
2018-12-20T10:02:14.433Z,8.50
2018-12-20T10:04:42.542Z,8.50
2018-12-20T10:07:10.663Z,8.50
2018-12-20T10:09:39.061Z,8.50
2018-12-20T10:14:40.719Z,8.50
2018-12-20T10:17:09.064Z,8.60
2018-12-20T10:19:37.186Z,8.60
2018-12-20T10:22:05.605Z,8.60
2018-12-20T10:24:33.822Z,8.60
2018-12-20T10:27:01.940Z,8.60
2018-12-20T10:29:30.179Z,8.60
2018-12-20T10:31:58.368Z,8.60
2018-12-20T10:34:26.578Z,8.70
2018-12-20T10:36:55.199Z,8.60
2018-12-20T10:39:23.308Z,8.60
2018-12-20T10:41:51.439Z,8.60
2018-12-20T10:44:19.757Z,8.60
2018-12-20T10:46:47.885Z,8.60
2018-12-20T10:49:16.014Z,8.60
2018-12-20T10:51:44.542Z,8.60
2018-12-20T10:54:12.668Z,8.60
2018-12-20T10:56:40.800Z,8.70
2018-12-20T10:59:09.231Z,8.70
2018-12-20T11:01:42.592Z,8.80
2018-12-20T11:04:16.306Z,8.80
2018-12-20T11:06:50.291Z,8.80
2018-12-20T11:09:24.094Z,8.90
2018-12-20T11:11:57.623Z,8.90
2018-12-20T11:14:26.095Z,8.90
2018-12-20T11:16:54.282Z,8.90
2018-12-20T11:19:22.413Z,8.90
2018-12-20T11:21:51.011Z,8.90
2018-12-20T11:24:19.142Z,8.90
2018-12-20T11:26:47.294Z,9.00
2018-12-20T11:29:15.739Z,9.00
2018-12-20T11:31:43.867Z,8.90
2018-12-20T11:34:11.984Z,9.00
2018-12-20T11:36:40.227Z,9.00
2018-12-20T11:39:08.817Z,9.00
2018-12-20T11:41:37.046Z,9.00
2018-12-20T11:44:05.435Z,9.00
2018-12-20T11:46:33.558Z,9.00
2018-12-20T11:49:01.706Z,9.00
2018-12-20T11:51:30.094Z,9.00
2018-12-20T11:53:58.207Z,9.00
2018-12-20T11:56:26.587Z,9.00
2018-12-20T11:58:54.854Z,9.00
2018-12-20T12:01:22.995Z,9.00
2018-12-20T12:03:57.355Z,9.00
2018-12-20T12:06:21.343Z,8.90
2018-12-20T12:08:49.575Z,8.90
2018-12-20T12:11:17.707Z,8.90
2018-12-20T12:13:46.259Z,8.80
2018-12-20T12:16:14.416Z,8.90
2018-12-20T12:18:42.731Z,8.90
2018-12-20T12:21:11.142Z,8.80
2018-12-20T12:23:39.268Z,8.70
2018-12-20T12:26:07.551Z,8.70
2018-12-20T12:28:35.815Z,8.60
2018-12-20T12:31:04.133Z,8.60
2018-12-20T12:33:32.267Z,8.60
2018-12-20T12:36:00.760Z,8.50
2018-12-20T12:38:28.971Z,8.50
2018-12-20T12:40:57.172Z,8.40
2018-12-20T12:43:25.588Z,8.40
2018-12-20T12:45:53.790Z,8.40
2018-12-20T12:48:22.146Z,8.40
2018-12-20T12:50:50.416Z,8.40
2018-12-20T12:53:18.612Z,8.40
2018-12-20T12:55:46.736Z,8.40
2018-12-20T12:58:15.246Z,8.40
2018-12-20T13:00:43.417Z,8.50
2018-12-20T13:03:11.534Z,8.60
2018-12-20T13:05:40.018Z,8.60
2018-12-20T13:08:08.223Z,8.60
2018-12-20T13:10:36.446Z,8.70
2018-12-20T13:13:05.635Z,8.70
2018-12-20T13:15:33.771Z,8.70
2018-12-20T13:18:01.977Z,8.70
2018-12-20T13:20:30.248Z,8.70
2018-12-20T13:22:58.847Z,8.80
2018-12-20T13:25:27.066Z,8.80
2018-12-20T13:27:55.496Z,8.80
2018-12-20T13:30:23.692Z,8.80
2018-12-20T13:32:51.808Z,8.80
2018-12-20T13:35:20.114Z,8.80
2018-12-20T13:37:48.228Z,8.80
2018-12-20T13:40:16.667Z,8.80
2018-12-20T13:42:45.172Z,8.80
2018-12-20T13:45:13.286Z,8.90
2018-12-20T13:47:41.416Z,8.90
2018-12-20T13:50:09.839Z,8.90
2018-12-20T13:52:38.083Z,8.90
2018-12-20T13:55:06.366Z,8.90
2018-12-20T13:57:34.931Z,8.80
2018-12-20T14:00:03.164Z,8.80
2018-12-20T14:02:31.288Z,8.70
2018-12-20T14:04:59.630Z,8.70
2018-12-20T14:07:27.798Z,8.70
2018-12-20T14:09:55.971Z,8.70
2018-12-20T14:12:24.304Z,8.80
2018-12-20T14:14:52.570Z,8.80
2018-12-20T14:17:20.702Z,8.80
2018-12-20T14:19:49.055Z,8.70
2018-12-20T14:22:17.172Z,8.70
2018-12-20T14:24:45.311Z,8.70
2018-12-20T14:27:13.625Z,8.70
2018-12-20T14:29:41.750Z,8.70
2018-12-20T14:32:10.073Z,8.70
2018-12-20T14:34:38.668Z,8.60
2018-12-20T14:37:06.811Z,8.60
2018-12-20T14:39:35.021Z,8.60
2018-12-20T14:42:03.692Z,8.60
2018-12-20T14:44:31.994Z,8.60
2018-12-20T14:47:00.212Z,8.70
2018-12-20T14:49:29.310Z,8.70
2018-12-20T14:51:57.432Z,8.70
2018-12-20T14:54:27.310Z,8.70
2018-12-20T14:56:55.782Z,8.70
2018-12-20T14:59:23.913Z,8.70
2018-12-20T15:01:52.099Z,8.70
2018-12-20T15:04:20.418Z,8.70
2018-12-20T15:06:48.719Z,8.70
2018-12-20T15:09:16.923Z,8.70
2018-12-20T15:11:45.261Z,8.70
2018-12-20T15:14:13.394Z,8.70
2018-12-20T15:16:41.508Z,8.70
2018-12-20T15:19:09.781Z,8.70
2018-12-20T15:21:37.943Z,8.80
2018-12-20T15:24:06.338Z,8.70
2018-12-20T15:26:34.590Z,8.70
2018-12-20T15:29:02.860Z,8.70
2018-12-20T15:31:31.024Z,8.80
2018-12-20T15:33:59.656Z,8.70
2018-12-20T15:36:27.860Z,8.70
2018-12-20T15:38:56.079Z,8.80
2018-12-20T15:41:24.494Z,8.70
2018-12-20T15:43:52.622Z,8.80
2018-12-20T15:46:22.280Z,8.70
2018-12-20T15:48:56.416Z,8.70
2018-12-20T15:51:23.403Z,8.60
2018-12-20T15:53:51.520Z,8.70
2018-12-20T15:56:19.862Z,8.60
2018-12-20T15:58:48.118Z,8.70
2018-12-20T16:01:16.240Z,8.70
2018-12-20T16:03:44.509Z,8.70
2018-12-20T16:06:12.621Z,8.60
2018-12-20T16:08:40.831Z,8.70
2018-12-20T16:11:09.091Z,8.70
2018-12-20T16:13:37.276Z,8.70
2018-12-20T16:16:05.758Z,8.70
2018-12-20T16:18:34.284Z,8.70
2018-12-20T16:21:02.415Z,8.60
2018-12-20T16:23:30.597Z,8.60
2018-12-20T16:25:58.992Z,8.50
2018-12-20T16:28:27.216Z,8.60
2018-12-20T16:30:55.355Z,8.60
2018-12-20T16:33:23.758Z,8.50
2018-12-20T16:35:52.036Z,8.60
2018-12-20T16:38:20.232Z,8.60
2018-12-20T16:40:48.500Z,8.60
2018-12-20T16:43:16.622Z,8.60
2018-12-20T16:45:44.762Z,8.60
2018-12-20T16:48:15.448Z,8.60
2018-12-20T16:50:43.820Z,8.60
2018-12-20T16:53:12.028Z,8.60
2018-12-20T16:55:40.446Z,8.60
2018-12-20T16:58:08.598Z,8.60
2018-12-20T17:00:36.910Z,8.60
2018-12-20T17:03:05.440Z,8.60
2018-12-20T17:05:33.787Z,8.60
2018-12-20T17:08:02.121Z,8.60
2018-12-20T17:10:30.492Z,8.60
2018-12-20T17:12:58.592Z,8.60
2018-12-20T17:15:26.791Z,8.60
2018-12-20T17:17:55.116Z,8.60
2018-12-20T17:20:23.331Z,8.60
2018-12-20T17:22:51.455Z,8.70
2018-12-20T17:25:20.139Z,8.70
2018-12-20T17:27:48.235Z,8.60
2018-12-20T17:30:16.531Z,8.60
2018-12-20T17:32:45.244Z,8.70
2018-12-20T17:35:13.426Z,8.60
2018-12-20T17:37:41.563Z,8.60
2018-12-20T17:40:10.383Z,8.60
2018-12-20T17:42:38.707Z,8.60
2018-12-20T17:45:07.937Z,8.60
2018-12-20T17:47:36.747Z,8.70
2018-12-20T17:50:06.111Z,8.70
2018-12-20T17:52:34.359Z,8.70
2018-12-20T17:55:02.717Z,8.70
2018-12-20T17:57:30.831Z,8.70
2018-12-20T17:59:59.473Z,8.70
2018-12-20T18:02:27.967Z,8.70
2018-12-20T18:04:56.101Z,8.70
2018-12-20T18:07:24.250Z,8.70
2018-12-20T18:09:52.534Z,8.70
2018-12-20T18:12:20.732Z,8.80
2018-12-20T18:14:49.022Z,8.80
2018-12-20T18:17:17.259Z,8.80
2018-12-20T18:19:45.487Z,8.80
2018-12-20T18:22:13.758Z,8.80
2018-12-20T18:24:41.991Z,8.80
2018-12-20T18:27:10.152Z,8.90
2018-12-20T18:29:38.276Z,8.80
2018-12-20T18:32:06.576Z,8.80
2018-12-20T18:34:34.761Z,8.90
2018-12-20T18:37:02.882Z,8.90
2018-12-20T18:39:31.112Z,8.90
2018-12-20T18:41:59.223Z,8.90
2018-12-20T18:44:27.432Z,9.00
2018-12-20T18:46:56.314Z,9.00
2018-12-20T18:49:24.428Z,9.00
2018-12-20T18:51:52.563Z,8.90
2018-12-20T18:54:20.967Z,8.90
2018-12-20T18:56:49.148Z,9.00
2018-12-20T18:59:17.347Z,8.90
2018-12-20T19:01:45.773Z,9.00
2018-12-20T19:04:13.911Z,9.00
2018-12-20T19:06:42.212Z,9.00
2018-12-20T19:09:10.916Z,9.00
2018-12-20T19:11:39.068Z,9.00
2018-12-20T19:14:07.287Z,9.00
2018-12-20T19:16:35.580Z,9.10
2018-12-20T19:19:03.856Z,9.00
2018-12-20T19:21:32.083Z,9.00
2018-12-20T19:24:00.494Z,9.00
2018-12-20T19:26:28.641Z,9.10
2018-12-20T19:28:56.770Z,9.00
2018-12-20T19:31:24.979Z,9.00
2018-12-20T19:33:53.185Z,9.00
2018-12-20T19:36:21.392Z,9.00
2018-12-20T19:38:49.832Z,9.00
2018-12-20T19:41:18.216Z,9.10
2018-12-20T19:43:46.404Z,9.00
2018-12-20T19:46:14.792Z,9.10
2018-12-20T19:48:43.019Z,9.10
2018-12-20T19:51:11.272Z,9.10
2018-12-20T19:53:39.636Z,9.10
2018-12-20T19:56:07.737Z,9.10
2018-12-20T19:58:35.875Z,9.10
2018-12-20T20:01:04.622Z,9.00
2018-12-20T20:03:32.752Z,9.10
2018-12-20T20:06:00.955Z,9.10
2018-12-20T20:08:29.165Z,9.10
2018-12-20T20:10:57.394Z,9.10
2018-12-20T20:13:30.662Z,9.10
2018-12-20T20:15:55.932Z,9.10
2018-12-20T20:18:24.062Z,9.10
2018-12-20T20:20:52.248Z,9.10
2018-12-20T20:23:20.506Z,9.00
2018-12-20T20:25:48.670Z,9.00
2018-12-20T20:28:16.815Z,9.00
2018-12-20T20:30:45.295Z,9.00
2018-12-20T20:33:13.420Z,9.00
2018-12-20T20:35:41.612Z,9.00
2018-12-20T20:38:09.872Z,9.00
2018-12-20T20:40:38.033Z,9.00
2018-12-20T20:43:06.167Z,8.90
2018-12-20T20:45:34.377Z,9.00
2018-12-20T20:48:02.510Z,8.90
2018-12-20T20:50:30.718Z,8.90
2018-12-20T20:52:59.179Z,8.90
2018-12-20T20:55:27.334Z,8.90
2018-12-20T20:57:55.474Z,8.90
2018-12-20T21:00:24.190Z,8.80
2018-12-20T21:02:52.452Z,8.80
2018-12-20T21:05:20.653Z,8.80
2018-12-20T21:07:49.062Z,8.80
2018-12-20T21:10:17.221Z,8.80
2018-12-20T21:12:45.342Z,8.80
2018-12-20T21:15:13.685Z,8.80
2018-12-20T21:20:21.390Z,8.80
2018-12-20T21:22:49.594Z,8.90
2018-12-20T21:25:17.796Z,8.90
2018-12-20T21:27:46.505Z,8.90
2018-12-20T21:30:14.615Z,8.90
2018-12-20T21:32:42.893Z,8.90
2018-12-20T21:35:11.248Z,8.90
2018-12-20T21:37:39.429Z,8.80
2018-12-20T21:40:07.814Z,8.80
2018-12-20T21:42:36.028Z,8.70
2018-12-20T21:45:04.596Z,8.70
2018-12-20T21:47:32.746Z,8.70
2018-12-20T21:50:01.100Z,8.70
2018-12-20T21:52:29.340Z,8.70
2018-12-20T21:54:57.451Z,8.70
2018-12-20T21:57:25.742Z,8.70
2018-12-20T22:00:01.028Z,8.70
2018-12-20T22:02:23.973Z,8.70
2018-12-20T22:04:52.839Z,8.70
2018-12-20T22:07:20.981Z,8.70
2018-12-20T22:09:49.210Z,8.60
2018-12-20T22:12:17.552Z,8.60
2018-12-20T22:14:45.792Z,8.60
2018-12-20T22:17:14.047Z,8.60
2018-12-20T22:19:42.423Z,8.60
2018-12-20T22:22:10.540Z,8.60
2018-12-20T22:24:38.732Z,8.60
2018-12-20T22:27:07.074Z,8.60
2018-12-20T22:29:35.196Z,8.60
2018-12-20T22:32:03.326Z,8.70
2018-12-20T22:34:31.681Z,8.70
2018-12-20T22:36:59.791Z,8.60
2018-12-20T22:39:27.917Z,8.60
2018-12-20T22:41:56.771Z,8.60
2018-12-20T22:44:24.923Z,8.60
2018-12-20T22:46:53.090Z,8.60
2018-12-20T22:49:21.592Z,8.50
2018-12-20T22:51:49.773Z,8.50
2018-12-20T22:54:17.937Z,8.50
2018-12-20T22:56:46.315Z,8.50
2018-12-20T22:59:14.428Z,8.50
2018-12-20T23:01:42.604Z,8.50
2018-12-20T23:04:10.959Z,8.50
2018-12-20T23:06:39.090Z,8.50
2018-12-20T23:09:07.306Z,8.50
2018-12-20T23:11:35.666Z,8.50
2018-12-20T23:14:04.055Z,8.50
2018-12-20T23:16:32.203Z,8.50
2018-12-20T23:19:00.927Z,8.50
2018-12-20T23:21:29.090Z,8.50
2018-12-20T23:23:57.223Z,8.50
2018-12-20T23:26:25.402Z,8.50
2018-12-20T23:28:53.556Z,8.50
2018-12-20T23:31:21.989Z,8.50
2018-12-20T23:33:50.218Z,8.40
2018-12-20T23:36:18.344Z,8.40
2018-12-20T23:38:46.479Z,8.40
2018-12-20T23:41:14.907Z,8.40
2018-12-20T23:43:43.068Z,8.40
2018-12-20T23:46:11.463Z,8.40
2018-12-20T23:48:39.852Z,8.40
2018-12-20T23:51:13.446Z,8.50
2018-12-20T23:53:38.175Z,8.50
2018-12-20T23:56:06.616Z,8.50
2018-12-20T23:58:34.922Z,8.50
